sim
Sign-in with your pilot id or email,
or register
Callsign
Passwort

Schedule Details

Flight Number: RYR3525 (2)
Departure: London Luton Airport (EGGW) at 13:20
Arrival: Fuerteventura Airport (GCFV) at 17:40
Route: Ryanair Passenger Schedule. Enter filed route here before submitting Pirep.

Weather Information
Getting current METAR information for EGGW 211520Z AUTO 21008KT 180V240 9999 NCD 14/08 Q1026
Getting current METAR information for GCFV 211500Z 06004KT 010V110 CAVOK 20/14 Q1021

Schedule Frequency

Route Map